Time;durP1;ratioP1;P1;durP2;ratioP2;P2;SDS_P1;SDS_P2;PMS_P1;PMS_P2;Temp;Humidity;BMP_temperature;BMP_pressure;BME280_temperature;BME280_humidity;BME280_pressure;Samples;Min_cycle;Max_cycle;Signal;HPM_P1;HPM_P2
2024/01/03 00:01:22;;;;;;;;;4.00;1.75;;;;;11.90;71.24;99269.06;5036184;28;46364;-69
2024/01/03 00:03:48;;;;;;;;;6.00;2.00;;;;;11.91;71.24;99268.13;5019744;28;64363;-70
2024/01/03 00:06:14;;;;;;;;;9.00;1.00;;;;;11.90;71.28;99261.22;5029544;28;45470;-71
2024/01/03 00:08:39;;;;;;;;;6.00;2.75;;;;;11.88;70.99;99243.81;5013916;28;45207;-71
2024/01/03 00:11:05;;;;;;;;;2.50;2.25;;;;;11.87;70.56;99245.63;5019600;28;45390;-70
2024/01/03 00:15:58;;;;;;;;;5.33;1.33;;;;;11.90;70.52;99249.84;5029743;28;45247;-70
2024/01/03 00:18:35;;;;;;;;;10.75;6.50;;;;;11.91;70.76;99249.78;5030696;28;45482;-71
2024/01/03 00:21:11;;;;;;;;;35.75;28.75;;;;;11.96;70.91;99244.28;5017264;28;45996;-70
2024/01/03 00:23:38;;;;;;;;;4.00;2.50;;;;;12.05;70.37;99237.66;5028204;28;45899;-71
2024/01/03 00:26:06;;;;;;;;;3.75;2.25;;;;;12.04;70.40;99249.94;5017391;28;45508;-71
2024/01/03 00:28:32;;;;;;;;;7.25;3.00;;;;;12.06;70.49;99257.72;5031550;28;45729;-71
2024/01/03 00:30:57;;;;;;;;;6.50;2.25;;;;;12.06;70.21;99263.81;5030878;28;66292;-71
2024/01/03 00:33:23;;;;;;;;;5.00;3.00;;;;;12.06;70.88;99269.06;5032392;28;45262;-71
2024/01/03 00:35:48;;;;;;;;;5.75;1.00;;;;;12.03;70.42;99266.59;5035142;28;45377;-71
2024/01/03 00:38:14;;;;;;;;;8.25;2.25;;;;;12.03;70.93;99263.97;5034683;28;45574;-69
2024/01/03 00:40:55;;;;;;;;;9.25;1.00;;;;;12.05;70.64;99261.28;5040553;28;65041;-71
2024/01/03 00:43:21;;;;;;;;;2.50;2.00;;;;;12.03;70.59;99250.03;5025616;28;45301;-70
2024/01/03 00:45:48;;;;;;;;;4.75;0.75;;;;;12.02;70.95;99251.78;5013457;28;45525;-70
2024/01/03 00:48:16;;;;;;;;;7.25;1.50;;;;;12.02;71.19;99248.31;5011467;28;45723;-71
2024/01/03 00:50:41;;;;;;;;;4.50;0.75;;;;;12.00;71.14;99239.72;5028166;28;46293;-70
2024/01/03 00:53:07;;;;;;;;;5.25;2.50;;;;;12.00;71.29;99263.31;5027872;28;45424;-70
2024/01/03 00:55:33;;;;;;;;;16.25;10.75;;;;;11.97;70.84;99240.75;5027834;28;45239;-70
2024/01/03 00:57:58;;;;;;;;;6.75;3.00;;;;;11.94;70.92;99240.91;5033417;28;45355;-71
2024/01/03 01:00:24;;;;;;;;;3.00;2.25;;;;;11.94;70.84;99251.41;5015910;28;74532;-70
2024/01/03 01:02:49;;;;;;;;;7.00;2.00;;;;;11.94;70.59;99246.16;5041079;28;56509;-70
2024/01/03 01:05:14;;;;;;;;;2.25;1.00;;;;;11.93;70.62;99247.06;5010598;28;60592;-69
2024/01/03 01:07:40;;;;;;;;;4.50;0.00;;;;;11.92;71.09;99245.41;5037942;28;71958;-69
2024/01/03 01:10:05;;;;;;;;;4.75;2.00;;;;;11.92;71.27;99245.41;5037638;28;45388;-69
2024/01/03 01:12:32;;;;;;;;;6.50;2.75;;;;;11.93;71.11;99239.19;5041172;28;45340;-70
2024/01/03 01:14:59;;;;;;;;;4.25;1.50;;;;;11.95;71.06;99242.56;5036317;28;45500;-70
2024/01/03 01:17:25;;;;;;;;;5.25;1.50;;;;;11.93;71.18;99247.94;5026080;28;45506;-71
2024/01/03 01:19:51;;;;;;;;;3.00;1.75;;;;;11.96;71.03;99221.53;5038460;28;45431;-70
2024/01/03 01:22:16;;;;;;;;;6.25;1.75;;;;;11.99;71.04;99232.75;5017086;28;45527;-70
2024/01/03 01:24:41;;;;;;;;;6.25;1.50;;;;;11.98;70.56;99221.44;5030299;28;45478;-70
2024/01/03 01:27:07;;;;;;;;;1.00;1.00;;;;;11.98;70.56;99213.56;5035631;28;71408;-71
2024/01/03 01:29:32;;;;;;;;;5.25;1.00;;;;;12.02;70.97;99228.19;5027156;28;45963;-71
2024/01/03 01:31:57;;;;;;;;;6.75;1.75;;;;;11.99;70.67;99223.13;5034916;28;52341;-72
2024/01/03 01:34:23;;;;;;;;;3.50;1.75;;;;;11.99;70.68;99225.75;5039302;28;45277;-70
2024/01/03 01:36:48;;;;;;;;;5.75;1.00;;;;;11.99;70.81;99235.38;5004233;28;45630;-70
2024/01/03 01:39:15;;;;;;;;;5.50;1.00;;;;;11.96;71.11;99232.00;5031444;28;46511;-71
2024/01/03 01:41:40;;;;;;;;;3.00;1.25;;;;;11.95;71.17;99237.34;5019830;28;64190;-71
2024/01/03 01:44:05;;;;;;;;;6.25;1.00;;;;;11.97;71.26;99232.88;5007107;28;45440;-69
2024/01/03 01:46:31;;;;;;;;;4.50;1.00;;;;;12.03;71.12;99231.69;5037654;28;73145;-70
2024/01/03 01:48:57;;;;;;;;;4.00;0.50;;;;;12.08;71.18;99240.13;5039434;28;46339;-69
2024/01/03 01:51:22;;;;;;;;;2.75;1.00;;;;;12.12;71.29;99246.88;5004107;28;72498;-69
2024/01/03 01:53:48;;;;;;;;;5.50;2.00;;;;;12.18;70.86;99243.06;5014346;28;45366;-69
2024/01/03 01:56:14;;;;;;;;;2.25;1.00;;;;;12.22;70.67;99234.94;5028927;28;45558;-70
2024/01/03 01:58:41;;;;;;;;;7.50;3.00;;;;;12.23;70.65;99236.59;5028573;28;46948;-70
2024/01/03 02:01:06;;;;;;;;;8.25;1.00;;;;;12.23;70.82;99231.34;5017737;28;45325;-68
2024/01/03 02:03:32;;;;;;;;;8.50;2.00;;;;;12.24;70.98;99240.09;5032618;28;55420;-69
2024/01/03 02:05:57;;;;;;;;;10.00;1.00;;;;;12.25;70.62;99239.13;5038375;28;57945;-70
2024/01/03 02:08:26;;;;;;;;;4.50;1.00;;;;;12.25;70.70;99233.88;5028087;28;68656;-68
2024/01/03 02:10:52;;;;;;;;;3.25;1.00;;;;;12.25;70.44;99233.88;5035634;28;45763;-69
2024/01/03 02:13:17;;;;;;;;;5.50;2.00;;;;;12.24;70.34;99227.81;5039642;28;45495;-69
2024/01/03 02:15:42;;;;;;;;;5.00;2.75;;;;;12.25;70.65;99229.50;5033571;28;71689;-71
2024/01/03 02:18:08;;;;;;;;;3.00;0.50;;;;;12.25;70.25;99224.25;5009466;28;46773;-70
2024/01/03 02:20:35;;;;;;;;;4.00;1.00;;;;;12.28;70.68;99225.84;5034357;28;45394;-69
2024/01/03 02:23:00;;;;;;;;;5.75;1.50;;;;;12.30;70.62;99216.09;5039639;28;45356;-70
2024/01/03 02:25:26;;;;;;;;;1.50;1.50;;;;;12.33;70.77;99226.44;5040857;28;45336;-69
2024/01/03 02:27:51;;;;;;;;;9.50;2.50;;;;;12.35;70.73;99217.53;5000761;28;53042;-69
2024/01/03 02:30:16;;;;;;;;;5.75;1.00;;;;;12.41;70.68;99234.72;5027758;28;72219;-69
2024/01/03 02:32:42;;;;;;;;;8.00;1.75;;;;;12.43;70.64;99227.59;5018438;28;64436;-68
2024/01/03 02:35:07;;;;;;;;;6.50;1.50;;;;;12.41;70.37;99229.47;5002733;28;70806;-69
2024/01/03 02:37:33;;;;;;;;;1.50;1.00;;;;;12.41;70.59;99221.59;4997556;28;47908;-68
2024/01/03 02:39:58;;;;;;;;;6.75;2.00;;;;;12.40;70.67;99229.53;5015048;28;46589;-69
2024/01/03 02:42:23;;;;;;;;;7.75;1.25;;;;;12.42;70.55;99228.50;5030568;28;45501;-69
2024/01/03 02:44:49;;;;;;;;;9.00;3.00;;;;;12.38;70.81;99237.50;4993173;28;73684;-68
2024/01/03 02:47:14;;;;;;;;;5.25;1.00;;;;;12.35;71.13;99235.06;5029760;28;69375;-69
2024/01/03 02:49:39;;;;;;;;;6.75;1.00;;;;;12.32;71.39;99219.47;5038872;28;55992;-69
2024/01/03 02:52:05;;;;;;;;;5.00;1.50;;;;;12.31;71.54;99223.06;5004953;28;47304;-70
2024/01/03 02:54:30;;;;;;;;;2.50;2.50;;;;;12.26;71.27;99217.22;5035240;28;45543;-69
2024/01/03 02:56:57;;;;;;;;;6.00;1.00;;;;;12.27;71.90;99218.91;5007496;28;70023;-68
2024/01/03 02:59:24;;;;;;;;;9.50;1.50;;;;;12.24;71.69;99227.81;5035282;28;45354;-69
2024/01/03 03:01:49;;;;;;;;;3.00;0.75;;;;;12.22;72.04;99213.09;5027265;28;45313;-69
2024/01/03 03:04:15;;;;;;;;;4.75;2.00;;;;;12.19;72.14;99215.91;5009469;28;45330;-68
2024/01/03 03:06:40;;;;;;;;;2.50;1.25;;;;;12.26;71.72;99212.00;5015139;28;74112;-68
2024/01/03 03:09:05;;;;;;;;;2.50;2.00;;;;;12.24;72.29;99214.69;5033663;28;62581;-69
2024/01/03 03:11:31;;;;;;;;;6.25;2.25;;;;;12.24;72.25;99203.38;5020917;28;69448;-68
2024/01/03 03:13:56;;;;;;;;;3.00;1.00;;;;;12.26;72.58;99206.75;5035982;28;58451;-68
2024/01/03 03:16:21;;;;;;;;;4.50;1.25;;;;;12.27;72.37;99206.66;5036887;28;70188;-68
2024/01/03 03:18:46;;;;;;;;;10.25;3.00;;;;;12.27;72.14;99205.78;5037332;28;62401;-69
2024/01/03 03:21:12;;;;;;;;;10.00;3.00;;;;;12.26;72.58;99202.31;5014084;28;45265;-69
2024/01/03 03:23:37;;;;;;;;;1.50;1.00;;;;;12.28;72.73;99195.22;5021441;28;60465;-69
2024/01/03 03:26:03;;;;;;;;;3.75;2.00;;;;;12.26;72.58;99206.75;4995035;28;53287;-69
2024/01/03 03:28:30;;;;;;;;;5.75;1.00;;;;;12.26;72.99;99199.72;5029780;28;45773;-68
2024/01/03 03:30:55;;;;;;;;;2.50;2.00;;;;;12.24;72.99;99198.97;5026176;28;45364;-70
2024/01/03 03:33:20;;;;;;;;;5.00;2.00;;;;;12.24;73.45;99193.72;5036015;28;73288;-69
2024/01/03 03:35:45;;;;;;;;;3.50;3.00;;;;;12.22;74.00;99197.38;5029209;28;69088;-68
2024/01/03 03:38:11;;;;;;;;;5.50;1.50;;;;;12.19;73.93;99193.13;5004910;28;45242;-69
2024/01/03 03:40:36;;;;;;;;;9.50;1.75;;;;;12.16;74.03;99180.19;5020213;28;61679;-68
2024/01/03 03:43:02;;;;;;;;;7.25;1.25;;;;;12.12;74.13;99162.97;5036164;28;45315;-68
2024/01/03 03:45:27;;;;;;;;;4.75;1.00;;;;;12.13;74.58;99177.78;5005873;28;56985;-68
2024/01/03 03:47:52;;;;;;;;;2.00;1.00;;;;;12.12;74.31;99174.28;5038125;28;45498;-68
2024/01/03 03:50:18;;;;;;;;;2.50;1.00;;;;;12.10;74.28;99172.69;5027033;28;45491;-68
2024/01/03 03:52:45;;;;;;;;;5.25;2.00;;;;;12.11;74.53;99180.47;5032930;28;45440;-69
2024/01/03 03:55:13;;;;;;;;;0.00;0.00;;;;;12.09;74.73;99164.00;5037693;28;47562;-69
2024/01/03 03:57:38;;;;;;;;;2.00;1.00;;;;;12.13;74.60;99178.59;5014687;28;45175;-68
2024/01/03 04:00:05;;;;;;;;;0.50;0.50;;;;;12.12;74.65;99174.28;5025985;28;67090;-68
2024/01/03 04:02:31;;;;;;;;;4.00;0.00;;;;;12.15;74.08;99176.75;5034048;28;45652;-67
2024/01/03 04:04:56;;;;;;;;;1.50;0.75;;;;;12.13;73.86;99186.47;5020356;28;47984;-67
2024/01/03 04:07:22;;;;;;;;;1.75;0.50;;;;;12.11;73.27;99184.84;5033613;28;47119;-68
2024/01/03 04:09:47;;;;;;;;;3.75;0.75;;;;;12.08;72.71;99177.19;5019521;28;45913;-69
2024/01/03 04:12:12;;;;;;;;;0.00;0.00;;;;;12.05;72.58;99183.44;5030082;28;60388;-68
2024/01/03 04:14:38;;;;;;;;;0.00;0.00;;;;;12.06;72.17;99181.69;5027256;28;71724;-68
2024/01/03 04:17:03;;;;;;;;;1.50;0.00;;;;;12.07;72.05;99185.97;5004532;28;45342;-69
2024/01/03 04:19:30;;;;;;;;;0.00;0.00;;;;;12.08;71.74;99201.63;5010452;28;53897;-69
2024/01/03 04:21:56;;;;;;;;;3.00;0.00;;;;;12.11;71.93;99198.84;5017417;28;47185;-68
2024/01/03 04:24:21;;;;;;;;;0.00;0.00;;;;;12.14;71.63;99192.56;5037812;28;46436;-68
2024/01/03 04:26:47;;;;;;;;;2.00;0.00;;;;;12.15;71.97;99191.63;5024902;28;55371;-69
2024/01/03 04:29:12;;;;;;;;;0.00;0.00;;;;;12.15;72.15;99187.22;5033120;28;67918;-69
2024/01/03 04:31:37;;;;;;;;;2.50;0.00;;;;;12.18;72.39;99199.31;5028389;28;50646;-68
2024/01/03 04:34:03;;;;;;;;;2.00;0.00;;;;;12.17;72.21;99202.03;5033866;28;60381;-67
2024/01/03 04:36:28;;;;;;;;;0.00;0.00;;;;;12.14;72.68;99195.19;5017241;28;53621;-68
2024/01/03 04:38:53;;;;;;;;;0.00;0.00;;;;;12.12;72.63;99197.88;5029106;28;45536;-68
2024/01/03 04:41:19;;;;;;;;;1.75;0.00;;;;;12.09;72.54;99207.72;5038857;28;45430;-67
2024/01/03 04:43:44;;;;;;;;;1.00;0.00;;;;;12.05;72.80;99206.22;5017990;28;70508;-69
2024/01/03 04:46:09;;;;;;;;;3.25;0.00;;;;;12.03;72.82;99208.91;5008902;28;72308;-67
2024/01/03 04:48:35;;;;;;;;;1.50;0.00;;;;;12.01;72.85;99207.31;5037237;28;67357;-68
2024/01/03 04:51:00;;;;;;;;;1.75;0.00;;;;;11.97;72.58;99222.38;5015852;28;64167;-68
2024/01/03 04:53:25;;;;;;;;;0.00;0.00;;;;;11.94;72.93;99223.38;5016489;28;46233;-69
2024/01/03 04:55:51;;;;;;;;;0.50;0.00;;;;;11.95;72.81;99234.72;5037360;28;45230;-68
2024/01/03 04:58:17;;;;;;;;;3.50;1.00;;;;;11.95;72.40;99227.72;5028636;28;45353;-68
2024/01/03 05:00:43;;;;;;;;;1.25;0.00;;;;;11.96;72.45;99234.63;5033478;28;45531;-68
2024/01/03 05:03:08;;;;;;;;;1.00;0.00;;;;;11.98;72.30;99246.81;5037429;28;49392;-68
2024/01/03 05:05:33;;;;;;;;;2.00;0.25;;;;;11.96;72.31;99229.38;5002253;28;45493;-69
2024/01/03 05:07:59;;;;;;;;;1.00;0.00;;;;;11.96;72.46;99241.66;5010892;28;45322;-68
2024/01/03 05:10:25;;;;;;;;;2.00;0.00;;;;;11.94;72.44;99240.91;5033461;28;57956;-69
2024/01/03 05:12:50;;;;;;;;;1.00;0.00;;;;;11.93;71.97;99231.34;5028707;28;54162;-68
2024/01/03 05:15:16;;;;;;;;;4.50;0.25;;;;;11.92;72.15;99232.28;5033839;28;45360;-68
2024/01/03 05:17:41;;;;;;;;;2.75;0.50;;;;;11.94;71.58;99238.28;5042003;28;45612;-68
2024/01/03 05:20:08;;;;;;;;;1.75;0.00;;;;;11.97;72.08;99225.00;5021980;28;45511;-68
2024/01/03 05:22:33;;;;;;;;;0.00;0.00;;;;;12.00;71.56;99243.16;5026353;28;46150;-68
2024/01/03 05:25:00;;;;;;;;;3.00;0.00;;;;;12.03;71.75;99253.50;5035084;28;45351;-68
2024/01/03 05:27:25;;;;;;;;;2.50;0.50;;;;;12.03;71.18;99245.63;5025448;28;45439;-68
2024/01/03 05:29:50;;;;;;;;;0.25;0.25;;;;;12.05;71.21;99246.38;5025353;28;71910;-68
2024/01/03 05:32:16;;;;;;;;;0.00;0.00;;;;;12.06;70.98;99248.06;5039537;28;71792;-67
2024/01/03 05:34:42;;;;;;;;;1.00;0.00;;;;;12.04;70.57;99256.94;5022218;28;45451;-67
2024/01/03 05:37:07;;;;;;;;;0.00;0.00;;;;;12.00;70.71;99245.78;5030507;28;67915;-68
2024/01/03 05:39:32;;;;;;;;;3.00;0.00;;;;;11.97;70.23;99248.59;5038419;28;45433;-68
2024/01/03 05:41:58;;;;;;;;;1.25;0.00;;;;;11.95;70.56;99256.56;5032303;28;46748;-68
2024/01/03 05:44:23;;;;;;;;;1.00;0.00;;;;;11.94;70.24;99262.72;5032546;28;70107;-67
2024/01/03 05:46:48;;;;;;;;;1.25;0.00;;;;;11.95;70.20;99267.03;5031007;28;55126;-67
2024/01/03 05:49:14;;;;;;;;;2.00;0.00;;;;;11.96;70.52;99267.88;5040157;28;72421;-68
2024/01/03 05:51:39;;;;;;;;;1.25;0.00;;;;;11.92;70.58;99272.44;5014710;28;45944;-67
2024/01/03 05:54:05;;;;;;;;;1.75;0.00;;;;;11.93;70.53;99283.78;5020830;28;62102;-67
2024/01/03 05:56:31;;;;;;;;;3.00;0.00;;;;;11.90;70.50;99286.56;5022453;28;45589;-67
2024/01/03 05:58:56;;;;;;;;;0.00;0.00;;;;;11.89;70.67;99277.81;5026737;28;45329;-67
2024/01/03 06:01:21;;;;;;;;;1.25;0.00;;;;;11.86;71.04;99287.63;5001446;28;67005;-67
2024/01/03 06:03:47;;;;;;;;;3.00;0.00;;;;;11.83;71.69;99279.94;5036615;28;67283;-67
2024/01/03 06:06:12;;;;;;;;;0.75;0.00;;;;;11.81;72.00;99287.03;5041286;28;45892;-67
2024/01/03 06:08:37;;;;;;;;;0.25;0.00;;;;;11.80;72.17;99293.22;5027236;28;45401;-67
2024/01/03 06:11:03;;;;;;;;;1.00;0.00;;;;;11.85;72.52;99299.06;5029221;28;46041;-67
2024/01/03 06:13:28;;;;;;;;;2.00;0.00;;;;;11.88;72.54;99294.50;5028025;28;45228;-67
2024/01/03 06:15:54;;;;;;;;;1.00;0.00;;;;;11.89;72.63;99304.03;5034668;28;65846;-67
2024/01/03 06:18:21;;;;;;;;;1.75;1.00;;;;;11.89;72.30;99297.94;5032463;28;45551;-67
2024/01/03 06:20:46;;;;;;;;;0.75;0.00;;;;;11.86;72.59;99291.09;5041172;28;45357;-67
2024/01/03 06:23:11;;;;;;;;;1.00;1.00;;;;;11.82;73.11;99299.22;5009144;28;58398;-68
2024/01/03 06:25:37;;;;;;;;;2.00;0.25;;;;;11.81;73.38;99289.66;5008715;28;66783;-67
2024/01/03 06:28:03;;;;;;;;;3.00;0.00;;;;;11.79;73.48;99289.75;5021652;28;71356;-67
2024/01/03 06:30:29;;;;;;;;;3.75;0.00;;;;;11.77;73.70;99299.47;5040559;28;46037;-67
2024/01/03 06:32:54;;;;;;;;;1.00;1.00;;;;;11.75;73.80;99298.72;5038787;28;45293;-67
2024/01/03 06:35:20;;;;;;;;;1.50;0.50;;;;;11.72;73.57;99307.59;5029662;28;58003;-67
2024/01/03 06:37:45;;;;;;;;;3.00;0.00;;;;;11.73;73.82;99297.97;5023123;28;70071;-67
2024/01/03 06:40:10;;;;;;;;;3.00;1.00;;;;;11.73;73.92;99306.66;5019452;28;73246;-67
2024/01/03 06:42:36;;;;;;;;;4.75;1.00;;;;;11.73;74.09;99305.81;5019001;28;45388;-70
2024/01/03 06:45:01;;;;;;;;;3.75;1.00;;;;;11.75;74.10;99306.56;5022758;28;56086;-66
2024/01/03 06:47:26;;;;;;;;;1.00;1.00;;;;;11.80;73.96;99316.81;5034900;28;45417;-72
2024/01/03 06:49:52;;;;;;;;;3.25;2.00;;;;;11.86;73.84;99313.84;5027540;28;70118;-73
2024/01/03 06:52:18;;;;;;;;;3.00;1.25;;;;;11.83;73.82;99312.25;5036399;28;64882;-73
2024/01/03 06:54:43;;;;;;;;;3.75;2.00;;;;;11.83;73.57;99306.16;5004864;28;45289;-73
2024/01/03 06:57:08;;;;;;;;;5.00;1.25;;;;;11.80;74.29;99317.66;5016711;28;45219;-70
2024/01/03 06:59:37;;;;;;;;;6.50;1.00;;;;;11.79;74.25;99318.56;5018545;28;46062;-82
2024/01/03 07:02:02;;;;;;;;;1.75;1.00;;;;;11.77;74.08;99313.44;5031712;28;45797;-75
2024/01/03 07:04:28;;;;;;;;;1.75;0.75;;;;;11.75;74.01;99315.28;5042707;28;45470;-74
2024/01/03 07:06:53;;;;;;;;;5.50;2.25;;;;;11.73;74.58;99321.53;5023746;28;45321;-77
2024/01/03 07:09:19;;;;;;;;;6.25;1.00;;;;;11.71;74.54;99320.78;5028135;28;45451;-75
2024/01/03 07:11:44;;;;;;;;;4.00;0.50;;;;;11.70;74.75;99317.28;5035156;28;45415;-74
2024/01/03 07:14:13;;;;;;;;;3.50;1.00;;;;;11.64;74.61;99307.16;5010402;28;54049;-81
2024/01/03 07:16:38;;;;;;;;;5.75;1.00;;;;;11.69;74.65;99327.88;5015336;28;45408;-81
2024/01/03 07:19:04;;;;;;;;;3.00;1.00;;;;;11.66;74.53;99310.53;5031963;28;48324;-81
2024/01/03 07:21:30;;;;;;;;;5.00;1.00;;;;;11.65;74.48;99319.34;5028660;28;45438;-79
2024/01/03 07:23:55;;;;;;;;;0.00;0.00;;;;;11.66;74.85;99325.44;5027159;28;45603;-78
2024/01/03 07:26:20;;;;;;;;;1.00;1.00;;;;;11.66;74.97;99323.66;5021270;28;58546;-77
2024/01/03 07:28:46;;;;;;;;;6.25;2.00;;;;;11.65;74.59;99327.22;5039328;28;60778;-80
2024/01/03 07:31:11;;;;;;;;;2.50;1.00;;;;;11.65;74.62;99326.34;5017902;28;61612;-77
2024/01/03 07:33:39;;;;;;;;;4.75;2.50;;;;;11.63;74.47;99315.09;5014350;28;45270;-71
2024/01/03 07:36:04;;;;;;;;;4.75;1.75;;;;;11.67;74.63;99317.50;5022930;28;45319;-82
2024/01/03 07:38:29;;;;;;;;;6.50;2.00;;;;;11.72;74.83;99330.31;5006849;28;46691;-83
2024/01/03 07:40:55;;;;;;;;;4.00;1.75;;;;;11.72;74.61;99325.06;5012674;28;69114;-80
2024/01/03 07:43:20;;;;;;;;;7.75;2.00;;;;;11.71;74.43;99321.63;5041900;28;67717;-80
2024/01/03 07:45:45;;;;;;;;;11.50;2.25;;;;;11.72;74.71;99332.94;5040724;28;73260;-79
2024/01/03 07:48:11;;;;;;;;;3.50;1.00;;;;;11.70;74.60;99335.63;5040047;28;45502;-80
2024/01/03 07:50:36;;;;;;;;;4.00;2.50;;;;;11.72;74.75;99322.47;5039078;28;70101;-81
2024/01/03 07:53:02;;;;;;;;;5.50;2.00;;;;;11.73;74.34;99332.88;5022170;28;53284;-79
2024/01/03 07:55:27;;;;;;;;;2.50;1.50;;;;;11.77;74.54;99344.03;5021133;28;45540;-79
2024/01/03 07:57:53;;;;;;;;;4.00;2.25;;;;;11.77;74.35;99331.78;5032616;28;76073;-77
2024/01/03 08:00:18;;;;;;;;;6.00;1.50;;;;;11.82;73.82;99335.94;5034938;28;45732;-74
2024/01/03 08:02:44;;;;;;;;;9.25;2.75;;;;;11.81;73.80;99327.22;5033616;28;45419;-77
2024/01/03 08:05:09;;;;;;;;;7.50;2.25;;;;;11.81;73.91;99328.97;5021173;28;70110;-79
2024/01/03 08:07:35;;;;;;;;;5.00;2.75;;;;;11.80;73.95;99335.16;5025721;28;45468;-78
2024/01/03 08:10:08;;;;;;;;;4.25;1.25;;;;;11.82;73.93;99333.31;5031148;28;53965;-75
2024/01/03 08:12:33;;;;;;;;;8.50;3.00;;;;;11.85;73.64;99335.75;5020387;28;45473;-79
2024/01/03 08:14:59;;;;;;;;;4.00;1.25;;;;;11.92;73.30;99339.78;5012405;28;65848;-73
2024/01/03 08:17:28;;;;;;;;;6.25;2.50;;;;;11.98;73.01;99356.94;5002278;28;47017;-75
2024/01/03 08:19:54;;;;;;;;;3.25;1.00;;;;;12.01;73.90;99339.25;5032557;28;45453;-81
2024/01/03 08:22:19;;;;;;;;;5.00;1.50;;;;;12.02;73.44;99342.72;5037031;28;45555;-79
2024/01/03 08:24:44;;;;;;;;;5.00;1.00;;;;;12.04;73.67;99346.97;5022458;28;45340;-77
2024/01/03 08:27:10;;;;;;;;;7.50;1.00;;;;;12.08;73.56;99363.38;4998215;28;47118;-77
2024/01/03 08:29:37;;;;;;;;;3.50;0.75;;;;;12.12;73.79;99357.84;5021466;28;45376;-73
2024/01/03 08:32:03;;;;;;;;;6.00;1.00;;;;;12.17;74.78;99359.38;5037764;28;45472;-77
2024/01/03 08:34:28;;;;;;;;;3.75;1.00;;;;;12.16;74.66;99363.78;5019603;28;45620;-72
2024/01/03 08:36:53;;;;;;;;;3.00;0.75;;;;;12.09;74.73;99371.16;5034646;28;45278;-72
2024/01/03 08:39:20;;;;;;;;;2.50;0.00;;;;;12.04;75.20;99361.81;5033832;28;71733;-77
2024/01/03 08:41:46;;;;;;;;;4.25;1.00;;;;;11.98;75.26;99370.88;5018418;28;45397;-74
2024/01/03 08:44:11;;;;;;;;;4.00;1.50;;;;;11.96;75.61;99359.63;5031934;28;45468;-73
2024/01/03 08:46:40;;;;;;;;;3.25;1.00;;;;;12.01;76.13;99362.00;5033854;28;45592;-74
2024/01/03 08:49:07;;;;;;;;;6.25;3.00;;;;;12.04;75.97;99359.19;5035722;28;45819;-74
2024/01/03 08:51:32;;;;;;;;;4.00;1.00;;;;;12.07;76.41;99362.50;5020017;28;45398;-75
2024/01/03 08:53:58;;;;;;;;;7.00;2.50;;;;;12.07;75.98;99346.75;5040560;28;63427;-75
2024/01/03 08:56:23;;;;;;;;;5.00;2.50;;;;;12.06;76.26;99360.00;5042776;28;46324;-77
2024/01/03 08:58:49;;;;;;;;;10.50;2.00;;;;;12.02;76.16;99353.19;5043342;28;45413;-74
2024/01/03 09:01:19;;;;;;;;;4.50;1.50;;;;;11.97;76.23;99348.22;5022971;28;45515;-74
2024/01/03 09:03:45;;;;;;;;;5.25;1.75;;;;;11.95;75.91;99358.81;5001801;28;45490;-72
2024/01/03 09:06:13;;;;;;;;;4.00;1.50;;;;;11.93;76.22;99357.16;5042033;28;46447;-72
2024/01/03 09:08:39;;;;;;;;;7.75;1.00;;;;;11.94;76.49;99358.88;5001526;28;45435;-76
2024/01/03 09:11:13;;;;;;;;;4.50;2.00;;;;;11.96;76.20;99357.00;5021021;28;45397;-76
2024/01/03 09:13:39;;;;;;;;;9.50;3.00;;;;;11.98;76.22;99349.91;5033352;28;45554;-76
2024/01/03 09:16:06;;;;;;;;;4.00;2.75;;;;;11.97;75.89;99353.47;5041949;28;45258;-74
2024/01/03 09:18:31;;;;;;;;;3.50;2.00;;;;;11.98;75.63;99347.28;5018523;28;45203;-76
2024/01/03 09:20:58;;;;;;;;;7.00;1.75;;;;;11.98;75.48;99351.69;5039907;28;45265;-77
2024/01/03 09:23:27;;;;;;;;;7.25;4.00;;;;;12.01;75.46;99351.53;5042091;28;45241;-79
2024/01/03 09:25:55;;;;;;;;;9.00;2.00;;;;;12.02;75.02;99351.41;5025555;28;45930;-77
2024/01/03 09:28:20;;;;;;;;;6.50;2.25;;;;;12.03;74.63;99345.25;5025047;28;45432;-77
2024/01/03 09:30:46;;;;;;;;;4.50;2.00;;;;;12.05;74.50;99356.50;5024107;28;45672;-72
2024/01/03 09:33:12;;;;;;;;;3.00;1.00;;;;;12.05;74.88;99345.19;5041420;28;59654;-77
2024/01/03 09:35:37;;;;;;;;;5.75;1.00;;;;;12.06;74.63;99346.88;5041050;28;46572;-71
2024/01/03 09:38:02;;;;;;;;;5.50;2.00;;;;;12.11;74.25;99350.94;5006433;28;45837;-72
2024/01/03 09:40:31;;;;;;;;;5.25;2.25;;;;;12.15;73.98;99351.59;5025684;28;45497;-72
2024/01/03 09:42:56;;;;;;;;;5.00;2.00;;;;;12.24;74.30;99363.38;5037236;28;45613;-74
2024/01/03 09:45:22;;;;;;;;;8.00;4.00;;;;;12.35;73.92;99363.59;5027562;28;74549;-69
2024/01/03 09:47:47;;;;;;;;;5.75;4.00;;;;;12.42;73.50;99359.69;5014971;28;45357;-72
2024/01/03 09:50:12;;;;;;;;;4.25;3.25;;;;;12.51;73.68;99353.06;5029794;28;46025;-71
2024/01/03 09:52:39;;;;;;;;;4.75;2.50;;;;;12.56;73.67;99351.03;5024184;28;50175;-72
2024/01/03 09:55:06;;;;;;;;;9.00;3.50;;;;;12.58;73.25;99358.81;5033484;28;46163;-73
2024/01/03 09:57:31;;;;;;;;;6.25;3.75;;;;;12.57;73.55;99358.00;5031508;28;45313;-74
2024/01/03 09:59:58;;;;;;;;;6.25;4.50;;;;;12.58;73.47;99359.66;5023588;28;51824;-72
2024/01/03 10:02:27;;;;;;;;;4.00;3.00;;;;;12.56;73.49;99364.16;5040279;28;45317;-69
2024/01/03 10:04:53;;;;;;;;;4.25;2.75;;;;;12.56;73.33;99369.41;5033509;28;46994;-73
2024/01/03 10:07:30;;;;;;;;;6.50;3.25;;;;;12.59;73.52;99369.25;5027184;28;45780;-71
2024/01/03 10:09:56;;;;;;;;;5.25;3.50;;;;;12.65;73.05;99374.13;5022318;28;45569;-74
2024/01/03 10:12:21;;;;;;;;;5.25;3.00;;;;;12.64;72.96;99367.19;5025987;28;45694;-73
2024/01/03 10:14:47;;;;;;;;;8.50;4.00;;;;;12.61;73.13;99366.53;5044724;28;73476;-77
2024/01/03 10:17:13;;;;;;;;;8.25;3.00;;;;;12.58;73.14;99367.53;5007418;28;45543;-78
2024/01/03 10:19:38;;;;;;;;;8.00;3.25;;;;;12.57;73.24;99375.50;5028449;28;45547;-72
2024/01/03 10:22:04;;;;;;;;;6.75;2.00;;;;;12.57;73.39;99376.34;5020579;28;74208;-70
2024/01/03 10:24:31;;;;;;;;;5.50;3.25;;;;;12.59;73.20;99363.13;5027480;28;55472;-70
2024/01/03 10:27:10;;;;;;;;;5.50;3.50;;;;;12.60;73.24;99359.56;5022293;28;45376;-73
2024/01/03 10:29:39;;;;;;;;;11.25;3.00;;;;;12.63;73.27;99356.78;5039358;28;45417;-71
2024/01/03 10:32:09;;;;;;;;;8.25;3.00;;;;;12.70;73.77;99360.75;5030165;28;45357;-73
2024/01/03 10:34:35;;;;;;;;;8.50;3.00;;;;;12.83;73.60;99345.13;5033293;28;45642;-71
2024/01/03 10:37:01;;;;;;;;;9.75;3.25;;;;;12.90;72.98;99333.31;5022286;28;45333;-74
2024/01/03 10:39:28;;;;;;;;;3.00;3.00;;;;;12.92;72.62;99339.31;5022019;28;45455;-73
2024/01/03 10:41:54;;;;;;;;;5.50;4.00;;;;;12.98;72.89;99340.72;5038665;28;45467;-71
2024/01/03 10:44:21;;;;;;;;;6.25;2.00;;;;;13.03;72.09;99323.78;5036542;28;46034;-73
2024/01/03 10:46:48;;;;;;;;;3.00;1.50;;;;;13.11;72.20;99347.78;5004370;28;45446;-74
2024/01/03 10:49:15;;;;;;;;;6.00;2.00;;;;;13.20;71.73;99332.44;5022408;28;45428;-72
2024/01/03 10:51:42;;;;;;;;;5.25;2.00;;;;;13.25;71.36;99335.63;5018632;28;45463;-73
2024/01/03 10:54:10;;;;;;;;;9.50;3.00;;;;;13.36;71.63;99330.56;5031490;28;46394;-75
2024/01/03 10:56:36;;;;;;;;;5.00;2.50;;;;;13.50;71.05;99339.41;5042970;28;45273;-80
2024/01/03 10:59:03;;;;;;;;;8.50;2.75;;;;;13.61;70.10;99331.69;5022722;28;45460;-74
2024/01/03 11:01:33;;;;;;;;;4.50;2.00;;;;;13.70;70.17;99327.66;5028940;28;45372;-72
2024/01/03 11:04:21;;;;;;;;;7.50;3.00;;;;;13.80;69.53;99336.66;5012888;28;45651;-71
2024/01/03 11:07:00;;;;;;;;;4.50;2.25;;;;;13.83;69.68;99331.22;5032579;28;45717;-77
2024/01/03 11:09:26;;;;;;;;;4.00;4.00;;;;;13.84;69.09;99325.00;5017152;28;45401;-70
2024/01/03 11:12:08;;;;;;;;;6.00;2.75;;;;;13.85;68.32;99327.53;5019010;28;45448;-67
2024/01/03 11:14:34;;;;;;;;;5.75;3.50;;;;;13.83;68.60;99325.94;5030129;28;45300;-70
2024/01/03 11:16:59;;;;;;;;;4.50;2.25;;;;;13.79;68.82;99309.53;5012854;28;45289;-69
2024/01/03 11:19:32;;;;;;;;;9.75;3.75;;;;;13.76;68.50;99312.34;5026935;28;45377;-69
2024/01/03 11:22:04;;;;;;;;;7.50;5.00;;;;;13.78;67.65;99294.69;5020959;28;45334;-67
2024/01/03 11:24:32;;;;;;;;;6.00;3.00;;;;;13.85;68.16;99308.28;5032607;28;46436;-68
2024/01/03 11:26:58;;;;;;;;;10.00;3.25;;;;;13.93;68.06;99286.75;5031870;28;45274;-69
2024/01/03 11:29:36;;;;;;;;;8.00;4.00;;;;;14.04;67.90;99292.16;5035383;28;45400;-68
2024/01/03 11:32:09;;;;;;;;;6.00;4.00;;;;;14.10;67.00;99285.69;5031314;28;45305;-67